createdAt,value
2018-12-27T00:00:59.895Z,47.90
2018-12-27T00:03:26.849Z,41.23
2018-12-27T00:05:53.766Z,40.33
2018-12-27T00:08:20.669Z,39.70
2018-12-27T00:10:48.569Z,42.27
2018-12-27T00:13:15.520Z,48.53
2018-12-27T00:15:42.469Z,44.00
2018-12-27T00:18:09.384Z,57.40
2018-12-27T00:20:36.292Z,46.80
2018-12-27T00:23:03.288Z,49.37
2018-12-27T00:25:30.372Z,41.63
2018-12-27T00:27:57.506Z,48.83
2018-12-27T00:30:24.528Z,45.80
2018-12-27T00:32:51.452Z,50.70
2018-12-27T00:35:18.334Z,41.03
2018-12-27T00:37:45.381Z,44.37
2018-12-27T00:40:12.276Z,49.27
2018-12-27T00:42:39.200Z,44.20
2018-12-27T00:45:06.183Z,48.40
2018-12-27T00:47:33.129Z,42.67
2018-12-27T00:50:00.019Z,44.33
2018-12-27T00:52:26.964Z,49.23
2018-12-27T00:54:54.123Z,51.20
2018-12-27T00:57:21.132Z,44.37
2018-12-27T00:59:48.164Z,42.63
2018-12-27T01:02:15.247Z,48.93
2018-12-27T01:04:42.665Z,58.13
2018-12-27T01:07:09.608Z,52.50
2018-12-27T01:09:36.522Z,50.07
2018-12-27T01:12:03.498Z,39.33
2018-12-27T01:14:30.416Z,41.47
2018-12-27T01:16:57.334Z,40.33
2018-12-27T01:19:24.272Z,46.33
2018-12-27T01:21:51.230Z,37.30
2018-12-27T01:24:18.162Z,36.10
2018-12-27T01:26:45.133Z,49.20
2018-12-27T01:29:13.059Z,45.17
2018-12-27T01:31:39.979Z,44.47
2018-12-27T01:34:06.951Z,42.13
2018-12-27T01:36:33.937Z,41.00
2018-12-27T01:39:00.869Z,39.80
2018-12-27T01:41:27.787Z,39.70
2018-12-27T01:43:54.779Z,42.73
2018-12-27T01:46:21.712Z,36.33
2018-12-27T01:48:48.748Z,40.70
2018-12-27T01:51:15.702Z,42.40
2018-12-27T01:53:42.634Z,41.33
2018-12-27T01:56:09.622Z,39.80
2018-12-27T01:58:36.627Z,41.70
2018-12-27T02:01:03.576Z,38.10
2018-12-27T02:03:30.518Z,38.70
2018-12-27T02:05:57.470Z,47.47
2018-12-27T02:08:24.409Z,40.63
2018-12-27T02:10:51.350Z,36.90
2018-12-27T02:13:18.368Z,35.27
2018-12-27T02:15:45.315Z,38.00
2018-12-27T02:18:12.254Z,35.17
2018-12-27T02:20:39.203Z,32.57
2018-12-27T02:23:06.116Z,35.73
2018-12-27T02:25:33.032Z,36.20
2018-12-27T02:28:00.079Z,31.73
2018-12-27T02:30:26.988Z,50.10
2018-12-27T02:32:53.930Z,51.37
2018-12-27T02:35:20.880Z,46.90
2018-12-27T02:37:48.508Z,30.90
2018-12-27T02:40:15.445Z,33.97
2018-12-27T02:42:42.387Z,30.80
2018-12-27T02:45:09.309Z,30.00
2018-12-27T02:47:36.221Z,27.37
2018-12-27T02:50:03.204Z,27.73
2018-12-27T02:52:30.174Z,28.47
2018-12-27T02:54:57.726Z,28.50
2018-12-27T02:57:24.702Z,25.97
2018-12-27T02:59:51.658Z,25.93
2018-12-27T03:02:18.613Z,25.17
2018-12-27T03:04:46.075Z,27.70
2018-12-27T03:07:12.998Z,28.63
2018-12-27T03:09:40.013Z,32.60
2018-12-27T03:12:06.965Z,27.13
2018-12-27T03:14:33.959Z,28.40
2018-12-27T03:17:00.895Z,31.83
2018-12-27T03:19:27.845Z,30.80
2018-12-27T03:21:54.781Z,28.17
2018-12-27T03:24:21.747Z,28.10
2018-12-27T03:26:48.792Z,29.37
2018-12-27T03:29:15.750Z,29.47
2018-12-27T03:31:42.715Z,27.50
2018-12-27T03:34:09.732Z,28.13
2018-12-27T03:36:36.645Z,28.47
2018-12-27T03:39:04.765Z,24.47
2018-12-27T03:41:31.763Z,23.20
2018-12-27T03:43:58.637Z,29.17
2018-12-27T03:46:25.606Z,25.93
2018-12-27T03:48:52.570Z,25.07
2018-12-27T03:51:19.533Z,21.73
2018-12-27T03:53:46.451Z,25.43
2018-12-27T03:56:14.408Z,20.77
2018-12-27T03:58:41.378Z,22.73
2018-12-27T04:01:08.325Z,27.10
2018-12-27T04:03:35.281Z,21.73
2018-12-27T04:06:02.274Z,21.67
2018-12-27T04:08:29.255Z,20.47
2018-12-27T04:10:56.206Z,22.70
2018-12-27T04:13:23.179Z,19.97
2018-12-27T04:15:50.316Z,23.20
2018-12-27T04:18:17.271Z,22.40
2018-12-27T04:20:44.167Z,23.67
2018-12-27T04:23:11.113Z,19.70
2018-12-27T04:25:38.062Z,21.93
2018-12-27T04:28:05.963Z,23.63
2018-12-27T04:30:33.000Z,20.13
2018-12-27T04:32:59.986Z,21.23
2018-12-27T04:35:26.945Z,22.00
2018-12-27T04:37:54.926Z,27.10
2018-12-27T04:40:21.904Z,28.50
2018-12-27T04:42:49.974Z,26.50
2018-12-27T04:45:16.931Z,25.40
2018-12-27T04:47:43.862Z,29.60
2018-12-27T04:50:10.834Z,32.53
2018-12-27T04:52:37.778Z,30.43
2018-12-27T04:55:04.783Z,30.53
2018-12-27T04:57:31.747Z,31.27
2018-12-27T04:59:58.700Z,30.00
2018-12-27T05:02:25.613Z,33.80
2018-12-27T05:04:52.594Z,36.10
2018-12-27T05:07:19.599Z,38.90
2018-12-27T05:09:46.521Z,26.63
2018-12-27T05:12:13.431Z,28.03
2018-12-27T05:14:40.389Z,29.97
2018-12-27T05:17:07.389Z,29.97
2018-12-27T05:19:34.347Z,22.87
2018-12-27T05:22:01.284Z,44.93
2018-12-27T05:24:28.198Z,27.57
2018-12-27T05:26:55.207Z,27.40
2018-12-27T05:29:22.157Z,25.63
2018-12-27T05:31:49.141Z,25.67
2018-12-27T05:34:16.100Z,25.77
2018-12-27T05:36:43.037Z,22.00
2018-12-27T05:39:09.985Z,24.20
2018-12-27T05:41:36.893Z,24.53
2018-12-27T05:44:03.841Z,25.57
2018-12-27T05:46:30.739Z,21.57
2018-12-27T05:48:57.651Z,21.43
2018-12-27T05:51:25.213Z,21.43
2018-12-27T05:53:52.135Z,22.73
2018-12-27T05:56:19.068Z,23.23
2018-12-27T05:58:45.996Z,24.97
2018-12-27T06:01:12.951Z,21.93
2018-12-27T06:03:39.890Z,21.97
2018-12-27T06:06:06.884Z,26.33
2018-12-27T06:08:33.822Z,20.27
2018-12-27T06:11:00.807Z,22.90
2018-12-27T06:13:27.746Z,25.43
2018-12-27T06:15:54.773Z,26.67
2018-12-27T06:18:21.721Z,21.30
2018-12-27T06:20:48.725Z,23.27
2018-12-27T06:23:15.663Z,26.17
2018-12-27T06:25:42.638Z,23.60
2018-12-27T06:28:09.616Z,35.97
2018-12-27T06:30:36.553Z,40.47
2018-12-27T06:33:03.516Z,42.50
2018-12-27T06:35:30.547Z,36.80
2018-12-27T06:37:57.504Z,26.90
2018-12-27T06:40:24.444Z,26.67
2018-12-27T06:42:51.442Z,22.47
2018-12-27T06:45:18.400Z,24.27
2018-12-27T06:47:45.416Z,22.47
2018-12-27T06:50:12.411Z,24.53
2018-12-27T06:52:39.377Z,28.77
2018-12-27T06:55:06.359Z,26.47
2018-12-27T06:57:33.246Z,24.37
2018-12-27T07:00:00.196Z,27.50
2018-12-27T07:02:27.147Z,27.27
2018-12-27T07:04:54.151Z,24.60
2018-12-27T07:07:21.078Z,24.00
2018-12-27T07:09:48.225Z,19.37
2018-12-27T07:12:15.129Z,24.93
2018-12-27T07:14:42.084Z,24.17
2018-12-27T07:17:09.026Z,24.13
2018-12-27T07:19:36.057Z,23.73
2018-12-27T07:22:03.017Z,27.30
2018-12-27T07:24:29.963Z,24.93
2018-12-27T07:26:56.906Z,22.93
2018-12-27T07:29:23.820Z,21.90
2018-12-27T07:31:50.744Z,20.70
2018-12-27T07:34:17.679Z,33.17
2018-12-27T07:36:44.610Z,26.00
2018-12-27T07:39:11.591Z,26.37
2018-12-27T07:41:38.518Z,27.03
2018-12-27T07:44:05.448Z,26.63
2018-12-27T07:46:32.427Z,23.37
2018-12-27T07:48:59.322Z,25.90
2018-12-27T07:51:26.266Z,26.87
2018-12-27T07:53:53.215Z,23.67
2018-12-27T07:56:20.239Z,24.50
2018-12-27T07:58:47.235Z,26.97
2018-12-27T08:01:14.606Z,23.43
2018-12-27T08:03:41.517Z,29.00
2018-12-27T08:06:08.459Z,25.80
2018-12-27T08:08:35.382Z,28.07
2018-12-27T08:11:02.288Z,27.37
2018-12-27T08:13:29.235Z,24.37
2018-12-27T08:15:56.196Z,26.60
2018-12-27T08:18:23.159Z,22.43
2018-12-27T08:20:50.083Z,27.77
2018-12-27T08:23:17.006Z,23.97
2018-12-27T08:25:43.908Z,27.27
2018-12-27T08:28:10.919Z,23.20
2018-12-27T08:30:37.831Z,25.33
2018-12-27T08:33:05.802Z,27.50
2018-12-27T08:35:32.763Z,27.40
2018-12-27T08:37:59.675Z,28.00
2018-12-27T08:40:26.905Z,27.90
2018-12-27T08:42:53.868Z,32.47
2018-12-27T08:45:20.779Z,29.60
2018-12-27T08:47:47.945Z,28.10
2018-12-27T08:50:14.857Z,30.97
2018-12-27T08:52:41.802Z,28.50
2018-12-27T08:55:08.746Z,27.80
2018-12-27T08:57:35.660Z,32.23
2018-12-27T09:00:03.186Z,29.30
2018-12-27T09:02:30.102Z,31.43
2018-12-27T09:04:57.143Z,27.87
2018-12-27T09:07:24.196Z,28.13
2018-12-27T09:09:51.137Z,27.50
2018-12-27T09:12:18.130Z,33.90
2018-12-27T09:14:45.134Z,31.80
2018-12-27T09:17:12.137Z,35.27
2018-12-27T09:19:39.059Z,30.13
2018-12-27T09:22:06.041Z,29.07
2018-12-27T09:24:33.036Z,30.87
2018-12-27T09:27:00.605Z,26.30
2018-12-27T09:29:27.651Z,28.63
2018-12-27T09:31:55.473Z,33.77
2018-12-27T09:34:22.420Z,31.40
2018-12-27T09:36:50.388Z,35.73
2018-12-27T09:39:16.441Z,36.07
2018-12-27T09:41:43.477Z,39.20
2018-12-27T09:44:10.488Z,37.13
2018-12-27T09:46:37.505Z,28.23
2018-12-27T09:49:04.547Z,31.97
2018-12-27T09:51:31.757Z,28.67
2018-12-27T09:53:59.540Z,31.27
2018-12-27T09:56:26.474Z,33.57
2018-12-27T09:58:53.518Z,29.80
2018-12-27T10:01:21.074Z,33.13
2018-12-27T10:03:48.176Z,29.67
2018-12-27T10:06:15.122Z,30.67
2018-12-27T10:08:42.060Z,27.33
2018-12-27T10:11:08.958Z,29.30
2018-12-27T10:13:35.864Z,26.03
2018-12-27T10:16:02.836Z,29.23
2018-12-27T10:18:29.833Z,32.13
2018-12-27T10:20:56.851Z,35.53
2018-12-27T10:23:23.815Z,30.97
2018-12-27T10:25:50.931Z,32.27
2018-12-27T10:28:18.659Z,32.23
2018-12-27T10:30:45.662Z,31.30
2018-12-27T10:33:12.640Z,37.67
2018-12-27T10:35:41.318Z,32.40
2018-12-27T10:38:06.554Z,34.73
2018-12-27T10:40:33.509Z,32.43
2018-12-27T10:43:00.397Z,32.67
2018-12-27T10:45:27.389Z,34.53
2018-12-27T10:47:54.316Z,30.23
2018-12-27T10:50:21.270Z,28.03
2018-12-27T10:52:48.232Z,29.17
2018-12-27T10:55:15.158Z,28.83
2018-12-27T10:57:42.074Z,29.13
2018-12-27T11:00:10.387Z,26.50
2018-12-27T11:02:39.027Z,30.80
2018-12-27T11:05:06.055Z,35.90
2018-12-27T11:07:33.591Z,32.23
2018-12-27T11:10:00.574Z,37.90
2018-12-27T11:12:27.553Z,28.17
2018-12-27T11:14:54.555Z,35.63
2018-12-27T11:17:21.581Z,30.20
2018-12-27T11:19:48.618Z,32.07
2018-12-27T11:22:15.552Z,32.77
2018-12-27T11:24:42.514Z,32.93
2018-12-27T11:27:09.488Z,38.03
2018-12-27T11:29:36.512Z,38.10
2018-12-27T11:32:03.510Z,31.23
2018-12-27T11:34:30.536Z,32.00
2018-12-27T11:36:57.511Z,35.93
2018-12-27T11:39:24.451Z,30.33
2018-12-27T11:41:51.345Z,28.87
2018-12-27T11:44:18.252Z,25.27
2018-12-27T11:46:45.205Z,26.00
2018-12-27T11:49:12.149Z,29.03
2018-12-27T11:51:39.105Z,28.07
2018-12-27T11:54:06.029Z,25.43
2018-12-27T11:56:32.974Z,25.67
2018-12-27T11:58:59.907Z,31.47
2018-12-27T12:01:26.923Z,24.53
2018-12-27T12:03:53.871Z,34.30
2018-12-27T12:06:20.913Z,25.90
2018-12-27T12:08:48.966Z,24.13
2018-12-27T12:11:16.498Z,23.57
2018-12-27T12:13:43.485Z,35.67
2018-12-27T12:16:10.433Z,31.47
2018-12-27T12:18:37.342Z,28.27
2018-12-27T12:21:04.410Z,24.73
2018-12-27T12:23:31.330Z,29.20
2018-12-27T12:25:58.686Z,26.00
2018-12-27T12:28:25.627Z,31.23
2018-12-27T12:30:52.567Z,30.70
2018-12-27T12:33:19.517Z,23.73
2018-12-27T12:35:46.675Z,26.80
2018-12-27T12:38:13.636Z,28.03
2018-12-27T12:40:40.561Z,22.50
2018-12-27T12:43:07.523Z,27.13
2018-12-27T12:45:34.528Z,32.20
2018-12-27T12:48:01.505Z,29.97
2018-12-27T12:50:28.719Z,27.77
2018-12-27T12:52:55.811Z,24.87
2018-12-27T12:55:22.723Z,21.97
2018-12-27T12:57:49.662Z,26.87
2018-12-27T13:00:16.694Z,24.70
2018-12-27T13:02:44.000Z,25.80
2018-12-27T13:05:10.982Z,21.73
2018-12-27T13:07:37.933Z,22.17
2018-12-27T13:10:05.431Z,22.90
2018-12-27T13:12:32.469Z,24.53
2018-12-27T13:15:00.297Z,22.43
2018-12-27T13:17:27.289Z,32.70
2018-12-27T13:19:54.215Z,26.60
2018-12-27T13:22:21.177Z,19.90
2018-12-27T13:24:48.835Z,22.83
2018-12-27T13:27:15.772Z,24.27
2018-12-27T13:29:42.733Z,43.17
2018-12-27T13:32:09.695Z,23.37
2018-12-27T13:34:36.621Z,26.10
2018-12-27T13:37:03.538Z,31.77
2018-12-27T13:39:30.568Z,34.20
2018-12-27T13:41:57.515Z,33.23
2018-12-27T13:44:24.471Z,36.07
2018-12-27T13:46:51.914Z,26.70
2018-12-27T13:49:18.843Z,21.80
2018-12-27T13:51:45.802Z,24.53
2018-12-27T13:54:12.708Z,27.53
2018-12-27T13:56:39.788Z,26.17
2018-12-27T13:59:06.717Z,22.67
2018-12-27T14:01:33.721Z,21.30
2018-12-27T14:04:01.177Z,22.37
2018-12-27T14:06:32.656Z,29.50
2018-12-27T14:08:55.429Z,19.57
2018-12-27T14:11:22.350Z,22.83
2018-12-27T14:13:49.373Z,18.60
2018-12-27T14:16:16.341Z,20.80
2018-12-27T14:18:43.316Z,20.57
2018-12-27T14:21:10.250Z,21.17
2018-12-27T14:23:37.202Z,20.07
2018-12-27T14:26:04.177Z,17.80
2018-12-27T14:28:31.134Z,17.97
2018-12-27T14:30:58.131Z,18.97
2018-12-27T14:33:25.072Z,20.90
2018-12-27T14:35:52.018Z,23.30
2018-12-27T14:38:18.984Z,20.07
2018-12-27T14:40:45.905Z,23.43
2018-12-27T14:43:12.904Z,20.93
2018-12-27T14:45:39.903Z,18.67
2018-12-27T14:48:06.876Z,21.73
2018-12-27T14:50:33.960Z,21.20
2018-12-27T14:53:00.905Z,26.07
2018-12-27T14:55:28.723Z,21.17
2018-12-27T14:57:56.463Z,21.90
2018-12-27T15:00:23.439Z,18.63
2018-12-27T15:02:51.059Z,19.60
2018-12-27T15:05:18.033Z,19.67
2018-12-27T15:07:44.967Z,22.77
2018-12-27T15:10:12.031Z,20.83
2018-12-27T15:12:39.249Z,22.20
2018-12-27T15:15:06.287Z,23.80
2018-12-27T15:17:33.290Z,20.70
2018-12-27T15:20:00.230Z,22.40
2018-12-27T15:22:27.182Z,25.17
2018-12-27T15:24:54.181Z,21.93
2018-12-27T15:27:21.051Z,25.03
2018-12-27T15:29:48.844Z,30.43
2018-12-27T15:32:15.786Z,30.60
2018-12-27T15:34:42.708Z,22.53
2018-12-27T15:37:09.618Z,22.47
2018-12-27T15:39:36.580Z,25.10
2018-12-27T15:42:03.595Z,25.53
2018-12-27T15:44:30.543Z,22.97
2018-12-27T15:46:58.651Z,26.47
2018-12-27T15:49:25.589Z,22.47
2018-12-27T15:51:52.649Z,31.33
2018-12-27T15:54:20.071Z,23.13
2018-12-27T15:56:47.042Z,26.27
2018-12-27T15:59:15.097Z,27.03
2018-12-27T16:01:42.069Z,28.93
2018-12-27T16:04:09.127Z,31.97
2018-12-27T16:06:36.113Z,40.13
2018-12-27T16:09:05.601Z,32.10
2018-12-27T16:11:32.688Z,30.50
2018-12-27T16:13:59.634Z,35.70
2018-12-27T16:16:26.542Z,39.40
2018-12-27T16:18:54.275Z,41.50
2018-12-27T16:21:21.741Z,32.83
2018-12-27T16:23:49.629Z,23.27
2018-12-27T16:26:16.558Z,25.53
2018-12-27T16:28:43.505Z,25.97
2018-12-27T16:31:10.506Z,30.47
2018-12-27T16:33:37.491Z,27.27
2018-12-27T16:36:04.407Z,33.80
2018-12-27T16:38:32.219Z,32.07
2018-12-27T16:40:58.320Z,28.90
2018-12-27T16:43:25.937Z,28.20
2018-12-27T16:45:52.862Z,21.73
2018-12-27T16:48:19.874Z,23.70
2018-12-27T16:50:47.879Z,29.57
2018-12-27T16:53:14.788Z,26.27
2018-12-27T16:55:41.836Z,29.10
2018-12-27T16:58:09.551Z,27.27
2018-12-27T17:00:36.544Z,26.13
2018-12-27T17:03:03.499Z,26.73
2018-12-27T17:05:30.440Z,26.80
2018-12-27T17:07:57.398Z,24.70
2018-12-27T17:10:24.417Z,23.27
2018-12-27T17:12:51.393Z,24.73
2018-12-27T17:15:18.428Z,23.43
2018-12-27T17:17:45.561Z,23.10
2018-12-27T17:20:13.155Z,38.23
2018-12-27T17:22:40.412Z,31.03
2018-12-27T17:25:07.404Z,26.30
2018-12-27T17:27:34.594Z,26.37
2018-12-27T17:30:01.743Z,29.60
2018-12-27T17:32:28.676Z,26.07
2018-12-27T17:34:55.701Z,27.80
2018-12-27T17:37:23.388Z,26.50
2018-12-27T17:39:49.667Z,29.80
2018-12-27T17:42:16.570Z,35.13
2018-12-27T17:44:44.409Z,42.97
2018-12-27T17:47:11.329Z,38.53
2018-12-27T17:49:38.291Z,26.87
2018-12-27T17:52:05.705Z,28.93
2018-12-27T17:54:32.617Z,25.43
2018-12-27T17:56:59.523Z,26.97
2018-12-27T17:59:26.458Z,24.37
2018-12-27T18:01:53.619Z,32.23
2018-12-27T18:04:20.647Z,22.07
2018-12-27T18:06:48.643Z,29.93
2018-12-27T18:09:15.631Z,31.00
2018-12-27T18:11:43.065Z,28.23
2018-12-27T18:14:09.982Z,29.80
2018-12-27T18:16:36.997Z,25.77
2018-12-27T18:19:04.017Z,29.93
2018-12-27T18:21:30.921Z,23.00
2018-12-27T18:23:57.860Z,32.43
2018-12-27T18:26:24.790Z,27.57
2018-12-27T18:28:51.746Z,28.07
2018-12-27T18:31:18.650Z,26.67
2018-12-27T18:33:45.570Z,28.47
2018-12-27T18:36:12.486Z,24.47
2018-12-27T18:38:39.433Z,26.40
2018-12-27T18:41:06.374Z,28.37
2018-12-27T18:43:33.321Z,31.20
2018-12-27T18:46:00.302Z,27.37
2018-12-27T18:48:27.318Z,30.23
2018-12-27T18:50:54.297Z,28.63
2018-12-27T18:53:21.237Z,26.87
2018-12-27T18:55:49.034Z,28.73
2018-12-27T18:58:15.978Z,29.37
2018-12-27T19:00:42.891Z,29.80
2018-12-27T19:03:09.834Z,28.33
2018-12-27T19:05:36.750Z,30.10
2018-12-27T19:08:03.735Z,28.40
2018-12-27T19:10:30.676Z,24.13
2018-12-27T19:13:06.355Z,32.13
2018-12-27T19:15:52.748Z,28.70
2018-12-27T19:18:27.516Z,27.83
2018-12-27T19:20:59.813Z,34.00
2018-12-27T19:23:27.626Z,25.90
2018-12-27T19:25:54.608Z,28.80
2018-12-27T19:28:21.527Z,28.43
2018-12-27T19:30:48.589Z,27.83
2018-12-27T19:33:15.521Z,28.23
2018-12-27T19:35:42.441Z,46.13
2018-12-27T19:38:09.397Z,30.33
2018-12-27T19:40:36.398Z,30.50
2018-12-27T19:43:03.379Z,26.73
2018-12-27T19:45:30.443Z,28.23
2018-12-27T19:47:57.395Z,35.77
2018-12-27T19:50:24.375Z,29.47
2018-12-27T19:52:51.387Z,30.80
2018-12-27T19:55:19.268Z,39.63
2018-12-27T19:57:46.936Z,37.33
2018-12-27T20:00:13.923Z,28.07
2018-12-27T20:02:40.983Z,29.27
2018-12-27T20:05:08.135Z,36.33
2018-12-27T20:07:35.124Z,30.87
2018-12-27T20:10:02.678Z,32.47
2018-12-27T20:12:29.677Z,29.47
2018-12-27T20:14:56.711Z,28.83
2018-12-27T20:17:23.635Z,29.13
2018-12-27T20:19:50.719Z,32.50
2018-12-27T20:22:17.676Z,28.33
2018-12-27T20:24:45.016Z,25.80
2018-12-27T20:27:11.938Z,27.70
2018-12-27T20:29:38.885Z,26.90
2018-12-27T20:32:05.852Z,30.17
2018-12-27T20:34:32.803Z,27.47
2018-12-27T20:36:59.757Z,27.80
2018-12-27T20:39:27.330Z,32.73
2018-12-27T20:41:54.295Z,26.57
2018-12-27T20:44:21.265Z,33.13
2018-12-27T20:46:49.187Z,29.70
2018-12-27T20:49:16.342Z,27.97
2018-12-27T20:51:43.436Z,31.23
2018-12-27T20:54:10.456Z,33.20
2018-12-27T20:56:37.390Z,30.90
2018-12-27T20:59:04.402Z,29.70
2018-12-27T21:01:31.347Z,26.23
2018-12-27T21:03:58.376Z,34.70
2018-12-27T21:06:25.350Z,30.10
2018-12-27T21:08:52.385Z,28.23
2018-12-27T21:11:19.363Z,39.77
2018-12-27T21:13:46.288Z,47.93
2018-12-27T21:16:13.263Z,29.87
2018-12-27T21:18:40.371Z,31.27
2018-12-27T21:21:07.325Z,33.33
2018-12-27T21:23:34.999Z,26.20
2018-12-27T21:26:02.110Z,29.30
2018-12-27T21:28:29.077Z,26.37
2018-12-27T21:30:56.026Z,31.80
2018-12-27T21:33:23.138Z,25.87
2018-12-27T21:35:50.222Z,39.37
2018-12-27T21:38:21.381Z,38.87
2018-12-27T21:40:44.170Z,38.57
2018-12-27T21:43:11.228Z,28.43
2018-12-27T21:45:38.176Z,32.87
2018-12-27T21:48:05.194Z,27.63
2018-12-27T21:50:32.631Z,26.53
2018-12-27T21:52:59.583Z,28.97
2018-12-27T21:55:26.540Z,28.13
2018-12-27T21:57:53.567Z,24.10
2018-12-27T22:00:21.625Z,39.73
2018-12-27T22:02:49.309Z,28.87
2018-12-27T22:05:16.256Z,29.80
2018-12-27T22:07:43.218Z,32.27
2018-12-27T22:10:10.161Z,27.73
2018-12-27T22:12:37.086Z,28.63
2018-12-27T22:15:04.225Z,26.13
2018-12-27T22:17:31.168Z,26.77
2018-12-27T22:19:58.110Z,33.37
2018-12-27T22:22:25.094Z,26.37
2018-12-27T22:24:52.040Z,26.43
2018-12-27T22:27:18.995Z,27.23
2018-12-27T22:29:46.262Z,28.77
2018-12-27T22:32:13.261Z,27.87
2018-12-27T22:34:40.212Z,26.67
2018-12-27T22:37:07.142Z,33.63
2018-12-27T22:39:34.071Z,27.60
2018-12-27T22:42:00.983Z,34.53
2018-12-27T22:44:27.940Z,31.53
2018-12-27T22:46:54.980Z,33.67
2018-12-27T22:49:21.983Z,37.00
2018-12-27T22:51:49.001Z,27.63
2018-12-27T22:54:15.962Z,32.30
2018-12-27T22:56:42.943Z,34.00
2018-12-27T22:59:09.845Z,33.93
2018-12-27T23:01:36.844Z,36.17
2018-12-27T23:04:03.806Z,34.10
2018-12-27T23:06:30.794Z,35.13
2018-12-27T23:08:57.838Z,34.97
2018-12-27T23:11:24.790Z,37.87
2018-12-27T23:13:51.757Z,34.30
2018-12-27T23:16:18.672Z,35.10
2018-12-27T23:18:45.924Z,34.17
2018-12-27T23:21:12.855Z,33.40
2018-12-27T23:23:40.322Z,37.70
2018-12-27T23:26:07.239Z,33.90
2018-12-27T23:28:34.232Z,35.10
2018-12-27T23:31:01.747Z,39.33
2018-12-27T23:33:28.693Z,31.83
2018-12-27T23:35:55.651Z,32.70
2018-12-27T23:38:22.636Z,33.90
2018-12-27T23:40:49.665Z,32.40
2018-12-27T23:43:16.606Z,39.63
2018-12-27T23:45:43.585Z,42.40
2018-12-27T23:48:10.549Z,40.00
2018-12-27T23:50:37.525Z,35.30
2018-12-27T23:53:04.457Z,33.50
2018-12-27T23:55:31.400Z,34.53
2018-12-27T23:57:58.331Z,31.00
